Time;durP1;ratioP1;P1;durP2;ratioP2;P2;SDS_P1;SDS_P2;PMS_P1;PMS_P2;Temp;Humidity;BMP_temperature;BMP_pressure;BME280_temperature;BME280_humidity;BME280_pressure;Samples;Min_cycle;Max_cycle;Signal;HPM_P1;HPM_P2
2023/05/27 00:02:41;;;;;;;12.70;6.13;;;;;;;22.60;58.00;101037.25;5104562;28;20051;-82
2023/05/27 00:05:33;;;;;;;15.45;6.47;;;;;;;22.54;58.06;101047.91;5101888;28;20046;-81
2023/05/27 00:08:29;;;;;;;9.05;6.55;;;;;;;22.58;57.99;101047.91;5099736;28;20047;-81
2023/05/27 00:11:25;;;;;;;9.77;7.68;;;;;;;22.53;59.40;101056.59;5102932;28;20042;-81
2023/05/27 00:14:20;;;;;;;9.35;6.57;;;;;;;22.48;59.72;101060.53;5100865;28;20043;-81
2023/05/27 00:17:14;;;;;;;10.15;6.90;;;;;;;22.78;58.40;101074.19;5101196;28;20051;-80
2023/05/27 00:20:08;;;;;;;11.60;7.18;;;;;;;23.11;57.13;101083.44;5101879;28;20043;-82
2023/05/27 00:23:03;;;;;;;10.38;7.07;;;;;;;23.21;56.56;101085.44;5099727;28;20047;-82
2023/05/27 00:25:58;;;;;;;10.73;6.65;;;;;;;23.10;56.61;101092.94;5103111;28;20039;-80
2023/05/27 00:28:47;;;;;;;14.35;5.90;;;;;;;23.05;56.76;101085.00;5101129;28;20051;-81
2023/05/27 00:31:40;;;;;;;14.65;5.50;;;;;;;23.08;57.15;101095.31;5098564;28;20051;-81
2023/05/27 00:34:34;;;;;;;17.77;6.32;;;;;;;23.11;57.20;101102.88;5098439;28;20054;-80
2023/05/27 00:37:29;;;;;;;8.13;4.28;;;;;;;23.14;56.99;101093.75;5099020;28;20047;-82
2023/05/27 00:40:27;;;;;;;12.57;5.22;;;;;;;23.14;56.93;101107.63;5103080;28;20043;-82
2023/05/27 00:43:20;;;;;;;12.25;4.60;;;;;;;23.10;56.78;101099.28;5101123;28;20043;-81
2023/05/27 00:46:15;;;;;;;10.45;4.30;;;;;;;23.12;56.78;101105.22;5097927;28;20047;-82
2023/05/27 00:49:10;;;;;;;18.83;3.63;;;;;;;23.10;56.14;101101.25;5101968;28;20047;-82
2023/05/27 00:52:06;;;;;;;5.97;3.33;;;;;;;23.06;56.25;101106.78;5100200;28;20051;-83
2023/05/27 00:54:56;;;;;;;;;;;;;;;22.98;56.24;101108.75;5104808;28;20051;-87
2023/05/27 00:57:43;;;;;;;;;;;;;;;22.91;57.20;101116.22;5102187;28;19911;-89
2023/05/27 01:00:36;;;;;;;;;;;;;;;22.92;56.73;101113.06;5102603;28;19912;-90
2023/05/27 01:03:28;;;;;;;;;;;;;;;23.05;55.89;101118.28;5103037;28;20363;-89
2023/05/27 01:06:35;;;;;;;;;;;;;;;22.94;55.56;101109.91;5102127;28;19912;-89
2023/05/27 01:09:28;;;;;;;;;;;;;;;22.78;57.32;101115.78;5102992;28;19916;-89
2023/05/27 01:12:48;;;;;;;;;;;;;;;22.73;58.34;101118.94;5104853;28;20398;-89
2023/05/27 01:15:42;;;;;;;;;;;;;;;22.69;58.75;101103.44;5085973;28;19912;-89
2023/05/27 01:18:35;;;;;;;;;;;;;;;22.72;59.04;101102.66;5105354;28;19916;-89
2023/05/27 01:21:26;;;;;;;;;;;;;;;22.70;59.82;101116.13;5103723;28;19912;-88
2023/05/27 01:24:18;;;;;;;;;;;;;;;22.59;60.22;101116.06;5112441;28;19912;-88
2023/05/27 01:27:10;;;;;;;;;;;;;;;22.47;60.83;101113.59;5102940;28;19912;-88
2023/05/27 01:30:00;;;;;;;;;;;;;;;22.56;60.04;101112.06;5102445;28;19916;-88
2023/05/27 01:33:22;;;;;;;;;;;;;;;22.47;60.41;101124.66;5105316;28;20310;-88
2023/05/27 01:36:16;;;;;;;;;;;;;;;22.36;61.84;101130.13;5080177;22;19921;-79
2023/05/27 01:39:10;;;;;;;;;;;;;;;22.32;60.11;101140.41;5054541;28;19916;-79
2023/05/27 01:42:03;;;;;;;;;;;;;;;22.14;60.38;101145.81;5056850;28;19913;-78
2023/05/27 01:44:56;;;;;;;;;;;;;;;22.10;61.11;101147.75;5055069;28;19912;-78
2023/05/27 01:47:48;;;;;;;;;;;;;;;22.03;60.51;101153.25;5033632;28;19913;-77
2023/05/27 01:50:40;;;;;;;;;;;;;;;22.04;59.87;101165.13;5039967;28;19916;-78
2023/05/27 01:53:32;;;;;;;;;;;;;;;21.87;61.14;101172.03;5037831;28;19913;-78
2023/05/27 01:56:22;;;;;;;;;;;;;;;21.64;63.94;101171.38;5036391;28;19913;-79
2023/05/27 01:59:11;;;;;;;;;;;;;;;21.82;63.27;101168.81;5039577;28;19913;-78
2023/05/27 02:02:05;;;;;;;;;;;;;;;21.74;63.64;101165.16;5037091;28;20372;-78
2023/05/27 02:04:57;;;;;;;;;;;;;;;21.83;64.82;101160.13;5040341;28;20372;-78
2023/05/27 02:07:47;;;;;;;;;;;;;;;21.93;64.27;101165.00;5038310;28;19913;-77
2023/05/27 02:10:36;;;;;;;;;;;;;;;22.10;63.54;101178.22;5036560;28;19913;-79
2023/05/27 02:13:28;;;;;;;;;;;;;;;21.97;64.56;101199.06;5039723;28;19913;-78
2023/05/27 02:16:18;;;;;;;;;;;;;;;21.72;66.00;101209.06;5037947;28;19913;-79
2023/05/27 02:19:10;;;;;;;;;;;;;;;21.58;67.38;101204.19;5035113;28;19913;-78
2023/05/27 02:22:02;;;;;;;;;;;;;;;21.61;66.88;101199.84;5039148;28;20295;-79
2023/05/27 02:24:54;;;;;;;;;;;;;;;21.51;67.31;101204.06;5036769;28;19917;-76
2023/05/27 02:27:48;;;;;;;;;;;;;;;21.49;67.22;101202.84;5034551;28;19912;-78
2023/05/27 02:30:40;;;;;;;;;;;;;;;21.52;67.23;101202.09;5037894;28;19913;-76
2023/05/27 02:33:32;;;;;;;;;;;;;;;21.43;67.31;101205.19;5036743;28;19913;-78
2023/05/27 02:36:24;;;;;;;;;;;;;;;21.59;66.52;101199.41;5038592;28;19913;-78
2023/05/27 02:39:16;;;;;;;;;;;;;;;21.68;66.03;101199.94;5037298;28;19913;-78
2023/05/27 02:42:08;;;;;;;;;;;;;;;21.71;65.62;101199.16;5035012;28;19912;-76
2023/05/27 02:44:59;;;;;;;;;;;;;;;21.73;65.43;101191.28;5038433;28;19913;-77
2023/05/27 02:47:51;;;;;;;;;;;;;;;21.73;65.47;101199.59;5036406;28;20319;-79
2023/05/27 02:50:43;;;;;;;;;;;;;;;21.58;65.87;101211.69;5039720;28;19917;-78
2023/05/27 02:53:33;;;;;;;;;;;;;;;21.57;66.27;101210.88;5038528;28;19917;-78
2023/05/27 02:56:25;;;;;;;;;;;;;;;21.55;66.08;101212.41;5035509;28;19912;-78
2023/05/27 02:59:17;;;;;;;;;;;;;;;21.56;65.13;101209.28;5038552;28;19913;-77
2023/05/27 03:02:09;;;;;;;;;;;;;;;21.51;65.29;101219.88;5037059;28;20376;-78
2023/05/27 03:05:04;;;;;;;3.50;1.90;;;;;;;21.65;65.39;101217.28;5033014;28;20400;-75
2023/05/27 03:07:59;;;;;;;1.92;1.55;;;;;;;21.54;65.64;101211.63;5034185;28;20045;-77
2023/05/27 03:10:51;;;;;;;2.00;1.38;;;;;;;21.52;66.04;101208.44;5036042;28;20052;-76
2023/05/27 03:13:45;;;;;;;4.43;1.80;;;;;;;21.53;65.25;101203.72;5038832;28;20052;-78
2023/05/27 03:16:38;;;;;;;2.10;1.33;;;;;;;21.60;65.64;101203.78;5050203;28;20049;-77
2023/05/27 03:19:32;;;;;;;3.67;1.40;;;;;;;21.59;65.28;101207.72;5034312;28;20052;-77
2023/05/27 03:22:26;;;;;;;2.03;1.38;;;;;;;21.58;64.79;101211.69;5037355;28;20056;-76
2023/05/27 03:25:21;;;;;;;2.25;1.35;;;;;;;21.55;63.89;101213.22;5035206;28;20044;-77
2023/05/27 03:28:16;;;;;;;4.97;1.20;;;;;;;21.44;64.29;101211.47;5033678;28;20056;-76
2023/05/27 03:31:08;;;;;;;5.18;1.38;;;;;;;21.34;64.97;101218.47;5036166;28;20049;-76
2023/05/27 03:34:19;;;;;;;3.45;1.23;;;;;;;21.23;66.32;101204.50;5033586;28;20408;-76
2023/05/27 03:37:13;;;;;;;2.97;1.40;;;;;;;20.97;69.08;101204.53;5033313;28;20040;-76
2023/05/27 03:40:28;;;;;;;12.02;1.65;;;;;;;20.91;68.29;101197.72;5033918;28;20044;-79
2023/05/27 03:43:21;;;;;;;1.67;1.10;;;;;;;20.90;68.15;101198.91;5038036;28;20396;-77
2023/05/27 03:46:16;;;;;;;3.13;1.17;;;;;;;20.85;67.57;101190.94;5035829;28;20056;-78
2023/05/27 03:49:08;;;;;;;2.60;1.45;;;;;;;20.79;67.54;101182.16;5039098;28;20044;-77
2023/05/27 03:52:03;;;;;;;4.38;1.20;;;;;;;20.82;67.39;101177.84;5036517;28;20056;-77
2023/05/27 03:54:58;;;;;;;2.05;1.38;;;;;;;20.76;67.55;101154.47;5034337;28;20040;-77
2023/05/27 03:57:50;;;;;;;2.88;1.52;;;;;;;20.75;66.44;101150.09;5037545;28;20049;-78
2023/05/27 04:00:44;;;;;;;2.20;1.33;;;;;;;20.78;66.53;101141.06;5034879;28;20060;-77
2023/05/27 04:03:39;;;;;;;2.28;1.40;;;;;;;20.77;65.90;101145.00;5046749;28;20048;-77
2023/05/27 04:06:36;;;;;;;2.00;1.38;;;;;;;20.76;65.87;101149.75;5049896;28;20700;-77
2023/05/27 04:09:31;;;;;;;1.92;1.20;;;;;;;20.82;66.11;101148.25;5033347;28;20404;-78
2023/05/27 04:12:25;;;;;;;2.97;1.52;;;;;;;20.76;65.72;101154.47;5037926;28;20040;-77
2023/05/27 04:15:20;;;;;;;2.92;1.52;;;;;;;20.72;66.09;101148.09;5033218;28;20404;-78
2023/05/27 04:18:14;;;;;;;7.45;1.98;;;;;;;20.72;65.68;101159.16;5031941;28;20049;-79
2023/05/27 04:21:09;;;;;;;3.08;1.33;;;;;;;20.73;65.27;101150.47;5035314;28;20044;-79
2023/05/27 04:24:03;;;;;;;1.60;1.23;;;;;;;20.65;65.90;101151.53;5034521;28;20048;-78
2023/05/27 04:26:58;;;;;;;2.38;1.48;;;;;;;20.95;64.44;101159.06;5033104;28;20049;-76
2023/05/27 04:29:53;;;;;;;2.47;1.20;;;;;;;20.98;64.14;101148.03;5033982;28;20523;-77
2023/05/27 04:32:49;;;;;;;2.15;1.30;;;;;;;20.86;64.66;101162.13;5031769;28;20052;-78
2023/05/27 04:35:43;;;;;;;1.42;1.08;;;;;;;20.56;66.25;101166.81;5029863;28;20044;-76
2023/05/27 04:38:38;;;;;;;1.38;0.98;;;;;;;20.46;66.78;101146.94;5033006;28;20043;-77
2023/05/27 04:41:32;;;;;;;2.30;1.40;;;;;;;20.42;68.26;101156.31;5035974;28;20056;-78
2023/05/27 04:44:36;;;;;;;4.43;1.65;;;;;;;20.38;68.71;101153.50;5033803;28;20052;-78
2023/05/27 04:47:29;;;;;;;;;;;;;;;20.54;68.20;101161.63;5033137;28;20048;-77
2023/05/27 04:50:23;;;;;;;2.28;1.10;;;;;;;20.44;68.53;101163.06;5033904;28;19917;-77
2023/05/27 04:53:18;;;;;;;2.78;1.20;;;;;;;20.51;68.21;101167.91;5026323;28;20049;-76
2023/05/27 04:56:14;;;;;;;2.38;0.93;;;;;;;20.55;68.22;101159.69;5036915;28;20060;-75
2023/05/27 04:59:05;;;;;;;1.27;1.10;;;;;;;20.54;68.36;101158.88;5029119;28;20040;-77
2023/05/27 05:02:41;;;;;;;1.10;0.95;;;;;;;20.71;67.14;101163.88;5021381;28;20052;-75
2023/05/27 05:05:24;;;;;;;5.22;2.17;;;;;;;20.69;67.39;101168.16;5029553;28;20044;-79
2023/05/27 05:08:19;;;;;;;4.85;1.30;;;;;;;20.70;66.97;101178.06;5032276;28;20435;-77
2023/05/27 05:11:14;;;;;;;4.25;1.48;;;;;;;20.68;67.19;101167.38;5030846;28;20527;-77
2023/05/27 05:14:08;;;;;;;3.13;1.70;;;;;;;20.67;68.55;101176.81;5030003;28;20044;-78
2023/05/27 05:17:03;;;;;;;3.17;1.63;;;;;;;20.47;69.17;101167.84;5029236;28;20041;-79
2023/05/27 05:19:57;;;;;;;1.90;1.08;;;;;;;20.54;68.68;101174.66;5029571;28;20048;-78
2023/05/27 05:22:52;;;;;;;2.88;1.50;;;;;;;20.71;67.94;101179.66;5048589;28;20040;-79
2023/05/27 05:25:46;;;;;;;2.33;1.70;;;;;;;20.67;68.68;101181.59;5034686;28;20049;-77
2023/05/27 05:28:39;;;;;;;;;;;;;;;20.69;67.76;101193.06;5032546;28;20113;-78
2023/05/27 05:31:33;;;;;;;1.80;1.25;;;;;;;20.96;67.54;101186.34;5029472;28;20396;-75
2023/05/27 05:34:25;;;;;;;3.08;1.35;;;;;;;21.23;66.29;101187.13;5019419;28;20057;-76
2023/05/27 05:37:20;;;;;;;2.08;1.63;;;;;;;21.52;65.06;101186.31;5016591;28;20045;-77
2023/05/27 05:40:14;;;;;;;3.45;1.60;;;;;;;21.67;64.73;101181.72;5034381;28;20045;-77
2023/05/27 05:43:18;;;;;;;1.45;1.00;;;;;;;21.73;63.71;101178.25;5018268;28;20049;-77
2023/05/27 05:46:13;;;;;;;1.27;0.90;;;;;;;21.72;61.74;101170.31;5015731;28;20048;-77
2023/05/27 05:49:05;;;;;;;3.97;1.27;;;;;;;21.70;62.03;101173.44;5018806;28;20064;-77
2023/05/27 05:52:05;;;;;;;3.03;1.67;;;;;;;21.72;62.54;101176.66;5030490;28;20045;-76
2023/05/27 05:54:58;;;;;;;;;;;;;;;21.55;62.60;101179.19;5021352;28;20057;-76
2023/05/27 05:57:52;;;;;;;2.42;1.00;;;;;;;21.69;62.60;101174.63;5017412;28;19913;-78
2023/05/27 06:00:46;;;;;;;3.72;1.40;;;;;;;21.62;62.68;101179.28;5028891;28;20401;-80
2023/05/27 06:03:59;;;;;;;2.80;1.33;;;;;;;21.57;63.49;101183.19;5018941;28;20069;-79
2023/05/27 06:07:06;;;;;;;2.63;1.75;;;;;;;21.53;64.71;101184.34;5015314;28;20069;-78
2023/05/27 06:10:04;;;;;;;8.75;3.20;;;;;;;21.52;64.50;101185.50;5031604;28;20405;-77
2023/05/27 06:13:04;;;;;;;20.52;5.63;;;;;;;21.41;65.14;101190.13;5029976;28;20052;-77
2023/05/27 06:16:00;;;;;;;12.35;4.20;;;;;;;21.45;65.26;101188.19;5018962;28;20060;-78
2023/05/27 06:18:52;;;;;;;14.85;5.72;;;;;;;21.43;65.15;101198.84;5033435;28;20044;-78
2023/05/27 06:21:41;;;;;;;5.90;3.20;;;;;;;21.43;66.62;101194.13;5032062;28;20419;-80
2023/05/27 06:24:49;;;;;;;11.60;4.05;;;;;;;21.16;66.39;101185.06;5038540;28;20060;-77
2023/05/27 06:27:48;;;;;;;8.90;4.10;;;;;;;21.25;66.03;101188.34;5033766;28;20068;-79
2023/05/27 06:30:42;;;;;;;8.57;3.58;;;;;;;21.73;64.10;101191.28;5037674;28;20049;-78
2023/05/27 06:33:36;;;;;;;8.07;3.00;;;;;;;22.12;63.22;101194.47;5035708;28;20105;-77
2023/05/27 06:36:31;;;;;;;8.40;3.28;;;;;;;22.69;60.67;101197.69;5037139;28;20052;-78
2023/05/27 06:39:28;;;;;;;9.15;3.13;;;;;;;23.12;59.92;101196.78;5037635;28;20044;-87
2023/05/27 06:42:22;;;;;;;4.20;2.13;;;;;;;23.65;58.96;101194.28;5036357;28;20048;-76
2023/05/27 06:45:26;;;;;;;8.52;2.60;;;;;;;23.83;58.62;101195.09;5037012;28;20052;-77
2023/05/27 06:48:27;;;;;;;12.43;2.22;;;;;;;23.72;58.86;101199.81;5039934;28;20052;-85
2023/05/27 06:51:18;;;;;;;5.10;2.15;;;;;;;23.37;59.23;101186.59;5049243;28;20057;-90
2023/05/27 06:54:12;;;;;;;9.00;2.58;;;;;;;23.51;59.75;101191.44;5051217;28;20064;-90
2023/05/27 06:57:08;;;;;;;6.93;1.85;;;;;;;23.37;59.97;101194.13;5040932;28;20043;-83
2023/05/27 07:00:19;;;;;;;3.70;2.05;;;;;;;23.20;59.74;101192.09;5042093;28;20052;-85
2023/05/27 07:03:27;;;;;;;4.13;1.85;;;;;;;23.53;59.17;101183.50;5041703;28;20060;-83
2023/05/27 07:06:19;;;;;;;10.98;2.00;;;;;;;23.57;59.00;101184.31;5045609;28;20048;-84
2023/05/27 07:09:14;;;;;;;11.45;2.88;;;;;;;23.83;58.52;101181.19;5041131;28;20053;-83
2023/05/27 07:12:07;;;;;;;5.60;2.10;;;;;;;24.28;56.43;101181.66;5037331;28;20048;-80
2023/05/27 07:15:25;;;;;;;3.58;2.47;;;;;;;24.88;53.78;101180.84;5034352;28;20401;-84
2023/05/27 07:18:20;;;;;;;6.43;2.28;;;;;;;24.70;52.68;101184.44;5036755;28;20678;-85
2023/05/27 07:21:10;;;;;;;3.35;1.98;;;;;;;24.27;53.44;101174.53;5031902;28;20041;-83
2023/05/27 07:24:05;;;;;;;4.57;2.47;;;;;;;25.32;50.75;101183.88;5041343;28;20413;-83
2023/05/27 07:26:57;;;;;;;2.83;1.90;;;;;;;25.79;50.13;101176.09;5036790;28;20052;-84
2023/05/27 07:29:49;;;;;;;38.33;3.70;;;;;;;25.77;49.89;101179.28;5038634;28;20048;-83
2023/05/27 07:32:53;;;;;;;11.57;2.13;;;;;;;26.01;49.48;101185.13;5032908;28;20405;-83
2023/05/27 07:35:40;;;;;;;4.68;2.63;;;;;;;25.43;50.79;101179.06;5038584;28;20823;-82
2023/05/27 07:38:32;;;;;;;7.03;2.45;;;;;;;25.93;47.33;101178.78;5055491;22;20053;-80
2023/05/27 07:41:27;;;;;;;3.95;3.00;;;;;;;26.17;46.41;101182.59;5043172;28;20045;-80
2023/05/27 07:44:20;;;;;;;18.73;3.53;;;;;;;24.79;51.42;101172.09;5038187;28;20041;-80
2023/05/27 07:47:14;;;;;;;7.00;3.13;;;;;;;24.18;53.79;101165.78;5038423;28;20064;-80
2023/05/27 07:50:08;;;;;;;7.72;2.78;;;;;;;24.03;54.41;101169.72;5025742;28;20456;-80
2023/05/27 07:53:18;;;;;;;16.10;2.70;;;;;;;23.73;54.79;101170.88;5018074;28;20048;-79
2023/05/27 07:56:10;;;;;;;;;;;;;;;23.75;54.67;101167.72;5029597;28;20244;-80
2023/05/27 07:59:05;;;;;;;9.82;3.28;;;;;;;23.74;54.32;101161.34;5029232;28;19914;-80
2023/05/27 08:02:00;;;;;;;6.70;2.88;;;;;;;23.76;54.90;101156.22;5031512;28;20040;-80
2023/05/27 08:04:54;;;;;;;3.80;2.55;;;;;;;23.64;55.16;101153.00;5029725;28;20056;-80
2023/05/27 08:08:03;;;;;;;8.63;3.08;;;;;;;23.60;55.43;101157.75;5026546;28;20044;-81
2023/05/27 08:11:21;;;;;;;4.85;3.40;;;;;;;23.79;53.29;101165.72;5036822;28;20044;-80
2023/05/27 08:14:27;;;;;;;8.75;3.05;;;;;;;23.97;52.33;101158.22;5030987;28;20048;-80
2023/05/27 08:17:39;;;;;;;8.43;3.10;;;;;;;23.79;54.77;101157.38;5028575;28;20063;-79
2023/05/27 08:20:44;;;;;;;8.63;3.58;;;;;;;23.82;53.40;101153.84;5034115;28;20040;-79
2023/05/27 08:24:02;;;;;;;4.75;3.15;;;;;;;24.09;51.66;101151.47;5026892;28;20064;-80
2023/05/27 08:27:21;;;;;;;5.93;2.80;;;;;;;24.06;52.69;101138.38;5014949;28;20052;-80
2023/05/27 08:30:27;;;;;;;7.65;3.25;;;;;;;24.10;52.95;101136.38;5011034;28;20060;-80
2023/05/27 08:33:26;;;;;;;8.30;3.28;;;;;;;24.17;52.58;101134.44;5028071;28;20044;-80
2023/05/27 08:36:18;;;;;;;5.97;2.53;;;;;;;24.25;52.25;101140.78;5027044;28;20049;-80
2023/05/27 08:39:09;;;;;;;7.65;3.00;;;;;;;24.26;50.12;101131.25;5023405;28;20044;-80
2023/05/27 08:42:07;;;;;;;3.97;2.58;;;;;;;24.44;47.67;101134.78;5026777;28;20036;-80
2023/05/27 08:45:00;;;;;;;;;;;;;;;24.36;48.50;101118.53;5011559;28;20040;-80
2023/05/27 08:47:52;;;;;;;5.38;3.30;;;;;;;24.42;47.90;101130.84;5026039;28;20308;-81
2023/05/27 08:50:45;;;;;;;7.78;3.50;;;;;;;24.29;48.66;101124.88;5026650;28;20045;-80
2023/05/27 08:53:40;;;;;;;3.80;2.65;;;;;;;24.40;46.22;101128.44;5024393;28;20064;-80
2023/05/27 08:56:35;;;;;;;5.53;3.10;;;;;;;24.21;49.34;101117.75;5028147;28;20048;-80
2023/05/27 08:59:28;;;;;;;11.73;3.55;;;;;;;24.20;47.70;101130.06;5024924;28;20497;-80
2023/05/27 09:02:26;;;;;;;5.07;3.17;;;;;;;24.18;47.90;101121.31;5023061;28;20049;-81
2023/05/27 09:05:20;;;;;;;5.65;3.35;;;;;;;24.18;49.29;101115.75;5025657;28;20516;-80
2023/05/27 09:08:16;;;;;;;7.70;3.65;;;;;;;24.01;50.09;101116.53;5028303;28;20460;-80
2023/05/27 09:11:20;;;;;;;8.45;3.90;;;;;;;24.20;48.03;101119.75;5039954;28;20039;-80
2023/05/27 09:14:21;;;;;;;5.93;3.40;;;;;;;24.40;47.26;101111.78;5046320;28;20048;-80
2023/05/27 09:17:16;;;;;;;18.35;3.78;;;;;;;24.44;47.23;101118.13;5052226;28;20048;-80
2023/05/27 09:20:11;;;;;;;4.25;2.88;;;;;;;24.28;49.26;101109.41;5052186;28;20044;-80
2023/05/27 09:23:08;;;;;;;4.13;2.50;;;;;;;24.14;50.18;101114.94;5049730;28;20423;-80
2023/05/27 09:26:08;;;;;;;7.15;3.40;;;;;;;24.07;50.72;101104.63;5052780;28;20328;-80
2023/05/27 09:29:03;;;;;;;4.60;2.90;;;;;;;24.20;49.82;101099.50;5049830;28;20056;-80
2023/05/27 09:32:01;;;;;;;4.43;3.03;;;;;;;24.31;48.11;101103.06;5041993;28;20040;-80
2023/05/27 09:34:55;;;;;;;6.07;2.80;;;;;;;24.42;49.11;101103.84;5030690;28;20052;-80
2023/05/27 09:37:50;;;;;;;5.40;3.03;;;;;;;24.12;50.21;101097.88;5031849;28;20040;-79
2023/05/27 09:40:48;;;;;;;4.75;3.42;;;;;;;24.54;45.75;101092.28;5032107;28;20056;-80
2023/05/27 09:43:43;;;;;;;5.00;2.83;;;;;;;24.42;47.81;101095.50;5030040;28;20042;-81
2023/05/27 09:46:38;;;;;;;6.60;2.88;;;;;;;24.36;48.83;101091.53;5032822;28;20589;-80
2023/05/27 09:49:34;;;;;;;6.22;3.30;;;;;;;24.44;48.68;101095.88;5032179;28;20044;-80
2023/05/27 09:52:27;;;;;;;3.88;2.72;;;;;;;24.50;46.57;101094.28;5028993;28;20048;-80
2023/05/27 09:55:20;;;;;;;3.97;3.03;;;;;;;24.49;48.14;101097.44;5030588;28;20411;-80
2023/05/27 09:58:14;;;;;;;4.70;2.42;;;;;;;24.63;47.16;101098.22;5028592;28;20056;-80
2023/05/27 10:01:09;;;;;;;5.68;3.30;;;;;;;24.42;48.52;101087.16;5032277;28;20046;-80
2023/05/27 10:04:05;;;;;;;6.60;2.85;;;;;;;24.41;48.14;101076.41;5030531;28;20060;-80
2023/05/27 10:06:59;;;;;;;4.20;2.10;;;;;;;24.58;45.56;101076.38;5034054;28;20040;-80
2023/05/27 10:09:54;;;;;;;2.83;1.90;;;;;;;24.61;46.34;101078.34;5032299;28;20052;-80
2023/05/27 10:12:51;;;;;;;4.13;2.17;;;;;;;24.81;44.32;101078.69;5032724;28;20048;-80
2023/05/27 10:15:52;;;;;;;3.90;2.47;;;;;;;24.81;45.12;101089.03;5035233;28;20059;-80
2023/05/27 10:18:47;;;;;;;5.30;2.55;;;;;;;24.78;45.82;101081.50;5031425;28;20048;-80
2023/05/27 10:21:47;;;;;;;5.10;2.30;;;;;;;24.53;48.09;101079.56;5035738;28;20412;-80
2023/05/27 10:24:48;;;;;;;2.55;1.80;;;;;;;24.85;45.82;101073.09;5034905;28;20412;-80
2023/05/27 10:27:43;;;;;;;3.03;1.92;;;;;;;24.68;46.40;101066.44;5037374;28;20538;-80
2023/05/27 10:30:47;;;;;;;4.22;2.35;;;;;;;24.63;46.82;101070.41;5045372;28;20044;-79
2023/05/27 10:33:52;;;;;;;4.18;2.05;;;;;;;24.52;46.42;101072.44;5041539;28;20113;-80
2023/05/27 10:36:46;;;;;;;4.85;2.47;;;;;;;24.46;47.51;101074.03;5036683;28;20052;-80
2023/05/27 10:39:41;;;;;;;3.58;2.53;;;;;;;24.49;48.14;101064.88;5043826;28;20052;-80
2023/05/27 10:42:33;;;;;;;4.20;2.92;;;;;;;24.71;46.51;101054.47;5039930;28;20041;-80
2023/05/27 10:45:36;;;;;;;5.97;3.10;;;;;;;25.02;46.07;101059.16;5043622;28;20052;-80
2023/05/27 10:48:32;;;;;;;4.60;2.53;;;;;;;25.32;45.91;101064.16;5042822;28;20053;-83
2023/05/27 10:51:35;;;;;;;3.22;1.90;;;;;;;31.86;30.12;101065.81;5039705;28;20060;-83
2023/05/27 10:54:30;;;;;;;4.53;2.75;;;;;;;34.35;27.48;101067.06;5032386;28;20047;-80
2023/05/27 10:57:24;;;;;;;3.00;1.85;;;;;;;35.79;25.94;101068.41;5036781;28;20044;-81
2023/05/27 11:00:20;;;;;;;2.33;1.55;;;;;;;37.78;22.93;101072.59;5036062;28;20519;-79
2023/05/27 11:03:29;;;;;;;5.88;2.30;;;;;;;39.48;19.35;101070.50;5044110;28;20114;-81
2023/05/27 11:06:24;;;;;;;3.15;2.28;;;;;;;40.19;19.48;101060.81;5041962;28;20041;-80
2023/05/27 11:09:18;;;;;;;2.95;2.08;;;;;;;38.15;21.61;101061.47;5038594;28;20052;-80
2023/05/27 11:12:15;;;;;;;5.05;2.00;;;;;;;36.14;22.70;101063.00;5043561;28;20511;-81
2023/05/27 11:15:11;;;;;;;1.75;1.48;;;;;;;38.39;21.00;101044.94;5042905;28;20408;-82
2023/05/27 11:18:04;;;;;;;1.92;1.73;;;;;;;37.02;22.44;101049.72;5055200;28;20064;-82
2023/05/27 11:21:01;;;;;;;1.87;1.40;;;;;;;37.00;23.28;101042.97;5040821;28;20508;-82
2023/05/27 11:23:56;;;;;;;3.40;2.28;;;;;;;39.40;19.72;101053.13;5041483;28;20738;-82
2023/05/27 11:26:50;;;;;;;4.38;2.42;;;;;;;40.14;18.50;101045.22;5041985;28;20044;-82
2023/05/27 11:29:56;;;;;;;3.63;2.35;;;;;;;36.63;22.58;101034.09;5043690;28;20531;-81
2023/05/27 11:32:48;;;;;;;5.97;2.38;;;;;;;38.90;19.79;101044.19;5040146;28;20060;-82
2023/05/27 11:35:43;;;;;;;2.30;2.10;;;;;;;40.48;18.65;101042.50;5039911;28;20713;-82
2023/05/27 11:39:02;;;;;;;4.15;1.40;;;;;;;37.72;21.32;101029.91;5037083;28;20040;-82
2023/05/27 11:41:56;;;;;;;2.58;1.90;;;;;;;37.30;22.24;101012.50;5040127;28;20048;-82
2023/05/27 11:44:54;;;;;;;6.78;2.58;;;;;;;37.76;21.29;101016.28;5043465;28;20052;-82
2023/05/27 11:47:45;;;;;;;5.55;3.00;;;;;;;37.25;21.37;101006.25;5043229;28;20044;-82
2023/05/27 11:50:40;;;;;;;4.22;2.47;;;;;;;38.56;20.66;101011.00;5036582;28;20420;-81
2023/05/27 11:53:34;;;;;;;4.00;2.22;;;;;;;35.28;23.37;101000.59;5044663;28;20048;-80
2023/05/27 11:56:29;;;;;;;5.63;3.10;;;;;;;33.60;27.61;100994.50;5031326;28;20515;-81
2023/05/27 11:59:21;;;;;;;4.55;3.15;;;;;;;33.70;25.79;100990.47;5039294;28;20048;-81
2023/05/27 12:02:13;;;;;;;6.00;3.50;;;;;;;32.31;27.32;100983.03;5039471;28;20045;-82
2023/05/27 12:05:07;;;;;;;9.63;3.45;;;;;;;33.48;26.64;100982.88;5038170;28;20040;-82
2023/05/27 12:08:02;;;;;;;4.85;3.75;;;;;;;31.46;29.34;100989.59;5046444;28;20039;-81
2023/05/27 12:10:58;;;;;;;6.50;3.90;;;;;;;29.44;33.33;100974.94;5033193;28;20052;-79
2023/05/27 12:13:52;;;;;;;13.65;4.78;;;;;;;28.65;34.60;100975.16;5040899;28;20048;-78
2023/05/27 12:16:44;;;;;;;11.60;4.47;;;;;;;32.07;27.62;100977.84;5034362;28;20045;-84
2023/05/27 12:19:39;;;;;;;10.77;4.65;;;;;;;31.99;28.56;100970.91;5030496;28;20056;-79
2023/05/27 12:22:31;;;;;;;14.55;5.68;;;;;;;28.74;33.90;100975.38;5043975;28;20060;-81
2023/05/27 12:25:25;;;;;;;8.57;5.13;;;;;;;32.95;26.51;100972.97;5040607;28;20520;-81
2023/05/27 12:28:17;;;;;;;16.35;5.18;;;;;;;31.92;27.88;100976.78;5040098;28;20041;-80
2023/05/27 12:31:07;;;;;;;5.65;3.55;;;;;;;35.01;24.10;100985.31;5044399;28;20056;-81
2023/05/27 12:33:59;;;;;;;8.35;4.00;;;;;;;35.30;22.97;100981.91;5057688;28;20032;-82
2023/05/27 12:36:51;;;;;;;4.95;3.42;;;;;;;35.19;23.76;100981.66;5056696;28;20047;-81
2023/05/27 12:39:51;;;;;;;5.43;3.38;;;;;;;36.65;21.75;100972.03;5054066;28;20044;-81
2023/05/27 12:42:46;;;;;;;6.65;3.45;;;;;;;35.47;23.01;100974.56;5056120;28;20044;-81
2023/05/27 12:45:40;;;;;;;5.03;3.30;;;;;;;35.15;23.34;100969.72;5038000;28;20040;-80
2023/05/27 12:48:30;;;;;;;5.05;3.05;;;;;;;34.62;23.39;100964.53;5040042;28;20396;-80
2023/05/27 12:51:24;;;;;;;9.85;3.28;;;;;;;34.64;23.11;100964.06;5042075;28;20045;-79
2023/05/27 12:54:19;;;;;;;5.57;3.20;;;;;;;32.99;24.96;100960.31;5036494;28;20049;-77
2023/05/27 12:57:13;;;;;;;8.40;3.40;;;;;;;33.52;25.53;100960.19;5032180;28;20504;-77
2023/05/27 13:00:09;;;;;;;26.15;7.28;;;;;;;33.27;26.51;100960.44;5024357;28;20044;-77
2023/05/27 13:03:02;;;;;;;143.57;29.88;;;;;;;32.67;26.08;100949.50;5014773;28;20045;-78
2023/05/27 13:05:56;;;;;;;30.48;8.98;;;;;;;31.21;28.94;100953.88;5024335;28;20049;-78
2023/05/27 13:08:51;;;;;;;83.95;19.92;;;;;;;29.98;31.56;100944.31;5033584;28;20049;-78
2023/05/27 13:11:43;;;;;;;31.13;9.13;;;;;;;29.18;32.35;100943.91;5047715;28;20037;-78
2023/05/27 13:14:37;;;;;;;14.10;5.35;;;;;;;28.74;33.03;100944.56;5047736;28;20045;-78
2023/05/27 13:17:32;;;;;;;9.40;4.65;;;;;;;28.38;33.99;100944.53;5030966;28;20043;-78
2023/05/27 13:20:27;;;;;;;7.38;4.03;;;;;;;28.21;34.39;100931.69;5023726;28;20516;-78
2023/05/27 13:23:22;;;;;;;6.93;3.80;;;;;;;27.96;34.70;100938.53;5023139;28;20052;-77
2023/05/27 13:26:17;;;;;;;9.00;4.30;;;;;;;27.84;34.05;100941.94;5019081;28;20049;-78
2023/05/27 13:29:09;;;;;;;;;;;;;;;27.64;35.61;100941.13;5021716;28;20048;-78
2023/05/27 13:32:04;;;;;;;5.60;3.60;;;;;;;27.40;35.75;100934.72;5028708;28;20363;-77
2023/05/27 13:34:59;;;;;;;8.63;3.75;;;;;;;27.50;35.09;100925.41;5029836;28;20395;-78
2023/05/27 13:38:00;;;;;;;7.15;3.67;;;;;;;27.48;35.40;100913.06;5026469;28;20535;-78
2023/05/27 13:40:51;;;;;;;5.95;3.45;;;;;;;27.45;34.46;100913.91;5027907;28;20104;-78
2023/05/27 13:43:46;;;;;;;8.35;3.50;;;;;;;27.35;35.90;100920.47;5032851;28;20405;-78
2023/05/27 13:46:40;;;;;;;5.60;3.50;;;;;;;27.31;34.84;100922.53;5039217;28;20117;-77
2023/05/27 13:49:35;;;;;;;5.00;3.33;;;;;;;27.21;35.74;100922.28;5043015;28;20068;-77
2023/05/27 13:52:25;;;;;;;8.35;3.75;;;;;;;27.20;35.70;100903.16;5041121;28;20053;-78